createdAt,value
2019-02-17T00:01:31.202Z,94.78
2019-02-17T00:03:31.074Z,94.90
2019-02-17T00:05:31.284Z,94.76
2019-02-17T00:07:31.149Z,95.15
2019-02-17T00:09:31.571Z,94.98
2019-02-17T00:11:31.586Z,95.48
2019-02-17T00:13:31.196Z,95.11
2019-02-17T00:15:31.200Z,95.38
2019-02-17T00:17:31.426Z,95.51
2019-02-17T00:19:31.013Z,95.52
2019-02-17T00:21:31.139Z,95.62
2019-02-17T00:23:31.247Z,95.50
2019-02-17T00:25:31.056Z,95.48
2019-02-17T00:27:30.991Z,95.48
2019-02-17T00:29:31.279Z,95.38
2019-02-17T00:31:31.204Z,95.45
2019-02-17T00:33:31.037Z,95.55
2019-02-17T00:35:31.313Z,95.60
2019-02-17T00:37:31.328Z,95.54
2019-02-17T00:39:31.537Z,95.30
2019-02-17T00:41:31.353Z,95.66
2019-02-17T00:43:31.569Z,95.94
2019-02-17T00:45:31.382Z,95.68
2019-02-17T00:47:31.383Z,95.98
2019-02-17T00:49:31.400Z,95.90
2019-02-17T00:51:31.212Z,95.80
2019-02-17T00:53:31.116Z,95.68
2019-02-17T00:55:31.027Z,95.74
2019-02-17T00:57:31.368Z,95.90
2019-02-17T00:59:31.256Z,96.11
2019-02-17T01:01:31.058Z,96.19
2019-02-17T01:03:31.199Z,96.04
2019-02-17T01:05:31.417Z,95.87
2019-02-17T01:07:31.230Z,96.32
2019-02-17T01:09:31.310Z,95.98
2019-02-17T01:11:32.356Z,96.43
2019-02-17T01:13:31.254Z,96.35
2019-02-17T01:15:31.438Z,96.18
2019-02-17T01:17:31.133Z,96.62
2019-02-17T01:19:31.336Z,96.46
2019-02-17T01:21:31.326Z,96.41
2019-02-17T01:23:31.332Z,96.77
2019-02-17T01:25:31.612Z,96.65
2019-02-17T01:27:31.217Z,96.73
2019-02-17T01:29:31.217Z,96.63
2019-02-17T01:31:31.164Z,96.55
2019-02-17T01:33:31.246Z,96.36
2019-02-17T01:35:31.253Z,96.56
2019-02-17T01:37:31.274Z,96.65
2019-02-17T01:39:31.277Z,96.73
2019-02-17T01:41:31.048Z,96.68
2019-02-17T01:43:31.301Z,96.71
2019-02-17T01:45:31.475Z,96.68
2019-02-17T01:47:31.735Z,96.69
2019-02-17T01:49:31.256Z,96.93
2019-02-17T01:51:31.272Z,96.92
2019-02-17T01:53:31.568Z,96.97
2019-02-17T01:55:31.168Z,97.19
2019-02-17T01:57:31.278Z,97.15
2019-02-17T01:59:31.314Z,96.92
2019-02-17T02:01:31.611Z,97.05
2019-02-17T02:03:31.217Z,97.22
2019-02-17T02:05:31.436Z,97.20
2019-02-17T02:07:32.203Z,97.35
2019-02-17T02:09:31.013Z,97.22
2019-02-17T02:11:31.264Z,97.17
2019-02-17T02:13:31.438Z,97.17
2019-02-17T02:15:31.188Z,97.20
2019-02-17T02:17:31.250Z,97.23
2019-02-17T02:19:31.357Z,97.23
2019-02-17T02:21:31.735Z,97.17
2019-02-17T02:23:31.257Z,97.32
2019-02-17T02:25:31.137Z,97.48
2019-02-17T02:27:31.262Z,97.65
2019-02-17T02:29:40.714Z,97.87
2019-02-17T02:31:31.380Z,97.88
2019-02-17T02:33:31.389Z,97.86
2019-02-17T02:35:31.600Z,97.80
2019-02-17T02:37:31.204Z,97.80
2019-02-17T02:39:31.441Z,97.43
2019-02-17T02:41:35.024Z,97.76
2019-02-17T02:43:30.952Z,97.53
2019-02-17T02:45:31.042Z,97.60
2019-02-17T02:47:31.195Z,97.71
2019-02-17T02:49:31.276Z,97.42
2019-02-17T02:51:31.055Z,97.58
2019-02-17T02:53:31.207Z,97.86
2019-02-17T02:55:31.715Z,97.96
2019-02-17T02:57:31.529Z,97.69
2019-02-17T02:59:31.737Z,97.77
2019-02-17T03:01:31.340Z,97.68
2019-02-17T03:03:31.357Z,97.65
2019-02-17T03:05:31.365Z,97.80
2019-02-17T03:07:31.086Z,97.56
2019-02-17T03:09:31.131Z,97.66
2019-02-17T03:11:31.398Z,97.57
2019-02-17T03:13:31.531Z,97.69
2019-02-17T03:15:31.177Z,97.77
2019-02-17T03:17:31.232Z,97.87
2019-02-17T03:19:31.185Z,97.83
2019-02-17T03:21:31.048Z,97.84
2019-02-17T03:23:31.273Z,97.97
2019-02-17T03:25:31.375Z,98.00
2019-02-17T03:27:31.078Z,97.98
2019-02-17T03:29:31.247Z,97.84
2019-02-17T03:31:31.064Z,98.00
2019-02-17T03:33:31.331Z,98.27
2019-02-17T03:35:31.951Z,98.28
2019-02-17T03:37:31.547Z,98.29
2019-02-17T03:39:31.360Z,98.30
2019-02-17T03:41:31.577Z,98.33
2019-02-17T03:43:31.583Z,98.16
2019-02-17T03:45:31.281Z,98.32
2019-02-17T03:47:31.602Z,98.22
2019-02-17T03:49:31.218Z,98.25
2019-02-17T03:51:31.427Z,98.24
2019-02-17T03:53:31.191Z,98.19
2019-02-17T03:55:31.459Z,98.55
2019-02-17T03:57:31.199Z,98.25
2019-02-17T03:59:31.396Z,98.16
2019-02-17T04:01:31.434Z,98.42
2019-02-17T04:03:31.095Z,98.33
2019-02-17T04:05:31.524Z,98.35
2019-02-17T04:07:31.222Z,98.29
2019-02-17T04:09:31.234Z,98.42
2019-02-17T04:11:31.345Z,98.43
2019-02-17T04:13:31.346Z,98.38
2019-02-17T04:15:31.494Z,98.31
2019-02-17T04:17:31.535Z,98.37
2019-02-17T04:19:31.186Z,98.52
2019-02-17T04:21:33.322Z,98.69
2019-02-17T04:23:31.788Z,98.76
2019-02-17T04:25:31.209Z,98.78
2019-02-17T04:27:31.434Z,98.65
2019-02-17T04:29:31.385Z,98.86
2019-02-17T04:31:31.253Z,98.71
2019-02-17T04:33:31.473Z,98.83
2019-02-17T04:35:31.421Z,98.86
2019-02-17T04:37:31.405Z,99.03
2019-02-17T04:39:31.296Z,98.76
2019-02-17T04:41:31.307Z,98.76
2019-02-17T04:43:31.109Z,98.77
2019-02-17T04:45:31.117Z,99.06
2019-02-17T04:47:31.750Z,99.10
2019-02-17T04:49:31.554Z,98.59
2019-02-17T04:51:31.365Z,98.84
2019-02-17T04:53:31.379Z,98.70
2019-02-17T04:55:31.396Z,99.00
2019-02-17T04:57:31.398Z,98.85
2019-02-17T04:59:31.417Z,98.83
2019-02-17T05:01:31.218Z,98.81
2019-02-17T05:03:31.193Z,98.80
2019-02-17T05:05:31.434Z,98.67
2019-02-17T05:07:31.455Z,98.86
2019-02-17T05:09:31.404Z,98.98
2019-02-17T05:11:31.887Z,98.90
2019-02-17T05:13:31.693Z,98.87
2019-02-17T05:15:31.204Z,98.92
2019-02-17T05:17:31.509Z,98.88
2019-02-17T05:19:31.109Z,99.07
2019-02-17T05:21:31.333Z,98.92
2019-02-17T05:23:31.531Z,99.05
2019-02-17T05:25:31.152Z,99.03
2019-02-17T05:27:31.370Z,99.13
2019-02-17T05:29:31.593Z,98.98
2019-02-17T05:31:31.334Z,98.87
2019-02-17T05:33:31.131Z,99.05
2019-02-17T05:35:31.407Z,98.83
2019-02-17T05:37:31.197Z,99.10
2019-02-17T05:39:31.228Z,99.12
2019-02-17T05:41:31.449Z,99.07
2019-02-17T05:43:31.395Z,98.87
2019-02-17T05:45:31.473Z,99.08
2019-02-17T05:47:31.408Z,99.07
2019-02-17T05:49:31.496Z,99.00
2019-02-17T05:51:31.307Z,99.06
2019-02-17T05:53:31.497Z,99.25
2019-02-17T05:55:31.479Z,99.17
2019-02-17T05:57:31.137Z,99.16
2019-02-17T05:59:31.318Z,98.90
2019-02-17T06:01:31.568Z,99.36
2019-02-17T06:03:31.368Z,99.27
2019-02-17T06:05:31.361Z,99.23
2019-02-17T06:07:31.601Z,99.18
2019-02-17T06:09:31.405Z,99.36
2019-02-17T06:11:32.027Z,99.55
2019-02-17T06:13:31.168Z,99.29
2019-02-17T06:15:31.236Z,99.25
2019-02-17T06:17:31.461Z,99.40
2019-02-17T06:19:31.254Z,99.55
2019-02-17T06:21:31.681Z,99.41
2019-02-17T06:23:31.467Z,99.50
2019-02-17T06:25:31.697Z,99.50
2019-02-17T06:27:31.528Z,99.14
2019-02-17T06:29:31.526Z,99.47
2019-02-17T06:31:31.681Z,99.24
2019-02-17T06:33:31.130Z,99.33
2019-02-17T06:35:31.556Z,99.46
2019-02-17T06:37:31.369Z,99.50
2019-02-17T06:39:31.164Z,99.05
2019-02-17T06:41:31.383Z,99.50
2019-02-17T06:43:31.392Z,99.54
2019-02-17T06:45:31.409Z,99.49
2019-02-17T06:47:31.223Z,99.79
2019-02-17T06:49:31.398Z,99.53
2019-02-17T06:51:31.240Z,99.70
2019-02-17T06:53:31.438Z,99.72
2019-02-17T06:55:31.619Z,99.54
2019-02-17T06:57:31.452Z,99.60
2019-02-17T06:59:31.489Z,99.77
2019-02-17T07:01:31.501Z,99.78
2019-02-17T07:03:31.734Z,99.68
2019-02-17T07:05:31.315Z,99.87
2019-02-17T07:07:31.350Z,100.00
2019-02-17T07:09:31.354Z,100.00
2019-02-17T07:11:31.500Z,100.00
2019-02-17T07:13:31.168Z,100.00
2019-02-17T07:15:31.181Z,100.00
2019-02-17T07:17:31.385Z,100.00
2019-02-17T07:19:31.357Z,100.00
2019-02-17T07:21:31.321Z,99.77
2019-02-17T07:23:31.431Z,99.65
2019-02-17T07:25:31.220Z,99.63
2019-02-17T07:27:31.154Z,99.58
2019-02-17T07:29:31.404Z,99.39
2019-02-17T07:31:34.983Z,99.20
2019-02-17T07:33:31.413Z,99.00
2019-02-17T07:35:31.424Z,98.26
2019-02-17T07:37:33.814Z,98.12
2019-02-17T07:39:31.269Z,98.06
2019-02-17T07:41:31.331Z,97.55
2019-02-17T07:43:31.274Z,97.48
2019-02-17T07:45:31.545Z,96.97
2019-02-17T07:47:31.787Z,96.78
2019-02-17T07:49:31.372Z,96.95
2019-02-17T07:51:31.588Z,96.11
2019-02-17T07:53:31.183Z,95.68
2019-02-17T07:55:31.193Z,95.13
2019-02-17T07:57:31.326Z,94.96
2019-02-17T07:59:31.635Z,95.10
2019-02-17T08:01:31.380Z,94.87
2019-02-17T08:03:31.200Z,95.10
2019-02-17T08:05:31.259Z,94.28
2019-02-17T08:07:31.477Z,93.71
2019-02-17T08:09:31.489Z,92.96
2019-02-17T08:11:31.908Z,92.42
2019-02-17T08:13:31.512Z,91.12
2019-02-17T08:15:31.514Z,91.04
2019-02-17T08:17:31.936Z,90.08
2019-02-17T08:19:31.545Z,90.04
2019-02-17T08:21:31.347Z,89.21
2019-02-17T08:23:31.725Z,88.65
2019-02-17T08:25:31.372Z,87.96
2019-02-17T08:27:31.591Z,87.54
2019-02-17T08:29:31.607Z,86.73
2019-02-17T08:31:31.578Z,86.49
2019-02-17T08:33:31.621Z,85.49
2019-02-17T08:35:31.606Z,85.03
2019-02-17T08:37:31.439Z,83.93
2019-02-17T08:39:31.458Z,83.75
2019-02-17T08:41:31.291Z,82.63
2019-02-17T08:43:31.623Z,81.76
2019-02-17T08:45:31.220Z,80.48
2019-02-17T08:47:31.779Z,80.47
2019-02-17T08:49:31.507Z,79.13
2019-02-17T08:51:31.320Z,80.04
2019-02-17T08:53:31.519Z,79.66
2019-02-17T08:55:31.539Z,79.81
2019-02-17T08:57:31.483Z,79.55
2019-02-17T08:59:31.564Z,77.84
2019-02-17T09:01:31.788Z,78.71
2019-02-17T09:03:31.518Z,78.56
2019-02-17T09:05:31.802Z,76.54
2019-02-17T09:07:31.589Z,75.25
2019-02-17T09:09:31.806Z,76.22
2019-02-17T09:11:32.262Z,76.15
2019-02-17T09:13:31.648Z,75.94
2019-02-17T09:15:31.398Z,74.25
2019-02-17T09:17:31.673Z,74.11
2019-02-17T09:19:31.682Z,74.98
2019-02-17T09:21:31.284Z,75.14
2019-02-17T09:23:31.232Z,74.81
2019-02-17T09:25:31.249Z,74.35
2019-02-17T09:27:31.529Z,75.41
2019-02-17T09:29:31.298Z,75.05
2019-02-17T09:31:31.336Z,73.78
2019-02-17T09:33:31.354Z,74.30
2019-02-17T09:35:31.571Z,73.85
2019-02-17T09:37:31.374Z,73.68
2019-02-17T09:39:31.594Z,73.85
2019-02-17T09:41:31.604Z,73.72
2019-02-17T09:43:31.507Z,73.38
2019-02-17T09:45:31.634Z,72.57
2019-02-17T09:47:31.642Z,71.84
2019-02-17T09:49:31.646Z,71.82
2019-02-17T09:51:31.668Z,70.49
2019-02-17T09:53:31.670Z,70.43
2019-02-17T09:55:31.481Z,70.65
2019-02-17T09:57:31.516Z,70.92
2019-02-17T09:59:31.710Z,71.73
2019-02-17T10:01:31.511Z,71.72
2019-02-17T10:03:31.742Z,70.71
2019-02-17T10:05:31.682Z,71.45
2019-02-17T10:07:31.510Z,70.33
2019-02-17T10:09:31.357Z,70.38
2019-02-17T10:11:31.570Z,68.54
2019-02-17T10:13:31.524Z,68.76
2019-02-17T10:15:31.607Z,69.13
2019-02-17T10:17:31.619Z,68.74
2019-02-17T10:19:31.390Z,67.50
2019-02-17T10:21:31.579Z,68.03
2019-02-17T10:23:31.482Z,68.41
2019-02-17T10:25:31.657Z,67.36
2019-02-17T10:27:31.668Z,66.79
2019-02-17T10:29:31.429Z,67.79
2019-02-17T10:31:31.481Z,68.24
2019-02-17T10:33:31.489Z,68.57
2019-02-17T10:35:31.918Z,68.47
2019-02-17T10:37:31.454Z,66.91
2019-02-17T10:39:31.484Z,66.98
2019-02-17T10:41:31.535Z,67.34
2019-02-17T10:43:31.863Z,66.94
2019-02-17T10:45:31.769Z,67.07
2019-02-17T10:47:31.554Z,66.91
2019-02-17T10:49:31.557Z,67.29
2019-02-17T10:51:31.599Z,68.22
2019-02-17T10:53:32.020Z,67.26
2019-02-17T10:55:31.382Z,68.04
2019-02-17T10:57:31.846Z,67.73
2019-02-17T10:59:31.644Z,66.94
2019-02-17T11:01:31.961Z,66.86
2019-02-17T11:03:31.578Z,65.96
2019-02-17T11:05:31.889Z,66.20
2019-02-17T11:07:31.686Z,65.86
2019-02-17T11:09:31.707Z,66.00
2019-02-17T11:11:31.493Z,64.89
2019-02-17T11:13:31.726Z,64.53
2019-02-17T11:15:31.740Z,65.48
2019-02-17T11:17:32.072Z,65.72
2019-02-17T11:19:31.693Z,64.37
2019-02-17T11:21:31.567Z,62.97
2019-02-17T11:23:31.781Z,62.44
2019-02-17T11:25:31.763Z,63.38
2019-02-17T11:27:31.566Z,62.65
2019-02-17T11:29:31.631Z,60.49
2019-02-17T11:31:31.829Z,60.98
2019-02-17T11:33:31.567Z,59.72
2019-02-17T11:35:31.460Z,60.05
2019-02-17T11:37:31.585Z,58.88
2019-02-17T11:39:31.392Z,56.99
2019-02-17T11:41:32.032Z,57.01
2019-02-17T11:43:32.115Z,57.13
2019-02-17T11:45:31.908Z,56.80
2019-02-17T11:47:31.648Z,55.55
2019-02-17T11:49:31.485Z,55.87
2019-02-17T11:51:31.480Z,56.33
2019-02-17T11:53:31.956Z,55.53
2019-02-17T11:55:31.644Z,54.42
2019-02-17T11:57:31.957Z,54.84
2019-02-17T11:59:31.783Z,53.79
2019-02-17T12:01:31.804Z,53.53
2019-02-17T12:03:31.797Z,53.60
2019-02-17T12:05:31.822Z,55.26
2019-02-17T12:07:31.840Z,55.22
2019-02-17T12:09:31.645Z,55.18
2019-02-17T12:11:31.731Z,55.76
2019-02-17T12:13:31.866Z,56.03
2019-02-17T12:15:31.886Z,55.88
2019-02-17T12:17:31.890Z,55.95
2019-02-17T12:19:31.701Z,55.97
2019-02-17T12:21:31.431Z,55.10
2019-02-17T12:23:31.524Z,54.84
2019-02-17T12:25:31.941Z,55.17
2019-02-17T12:27:31.538Z,54.32
2019-02-17T12:29:31.695Z,53.62
2019-02-17T12:31:31.503Z,53.55
2019-02-17T12:33:31.581Z,54.09
2019-02-17T12:35:32.205Z,54.54
2019-02-17T12:37:32.128Z,53.58
2019-02-17T12:39:31.587Z,53.28
2019-02-17T12:41:31.567Z,53.43
2019-02-17T12:43:31.608Z,53.97
2019-02-17T12:45:31.649Z,53.18
2019-02-17T12:47:31.796Z,52.83
2019-02-17T12:49:31.794Z,52.90
2019-02-17T12:51:31.894Z,52.55
2019-02-17T12:53:32.098Z,52.51
2019-02-17T12:55:31.822Z,52.28
2019-02-17T12:57:31.933Z,51.92
2019-02-17T12:59:31.721Z,52.29
2019-02-17T13:01:31.471Z,52.16
2019-02-17T13:03:31.881Z,52.01
2019-02-17T13:05:31.966Z,51.05
2019-02-17T13:07:31.551Z,50.62
2019-02-17T13:09:31.958Z,51.29
2019-02-17T13:11:31.830Z,49.85
2019-02-17T13:13:31.814Z,49.67
2019-02-17T13:15:31.617Z,48.85
2019-02-17T13:17:31.836Z,48.78
2019-02-17T13:19:33.227Z,48.80
2019-02-17T13:21:31.649Z,48.43
2019-02-17T13:23:31.868Z,48.59
2019-02-17T13:25:31.880Z,48.21
2019-02-17T13:27:31.689Z,48.45
2019-02-17T13:29:31.903Z,48.72
2019-02-17T13:31:31.912Z,48.68
2019-02-17T13:33:38.794Z,48.73
2019-02-17T13:35:32.142Z,49.23
2019-02-17T13:37:31.950Z,49.15
2019-02-17T13:39:31.956Z,49.23
2019-02-17T13:41:31.974Z,48.71
2019-02-17T13:43:31.982Z,47.18
2019-02-17T13:45:32.042Z,47.84
2019-02-17T13:47:31.598Z,46.15
2019-02-17T13:49:31.811Z,46.31
2019-02-17T13:51:31.824Z,47.09
2019-02-17T13:53:31.843Z,47.07
2019-02-17T13:55:31.645Z,46.05
2019-02-17T13:57:31.658Z,46.45
2019-02-17T13:59:31.897Z,45.92
2019-02-17T14:01:31.680Z,46.19
2019-02-17T14:03:31.694Z,45.83
2019-02-17T14:05:31.909Z,45.60
2019-02-17T14:07:31.725Z,45.74
2019-02-17T14:09:32.062Z,45.41
2019-02-17T14:11:31.732Z,45.52
2019-02-17T14:13:31.758Z,45.08
2019-02-17T14:15:32.060Z,44.80
2019-02-17T14:17:31.977Z,44.22
2019-02-17T14:19:31.715Z,44.08
2019-02-17T14:21:31.917Z,44.70
2019-02-17T14:23:31.708Z,44.14
2019-02-17T14:25:31.629Z,44.18
2019-02-17T14:27:31.748Z,44.33
2019-02-17T14:29:31.833Z,43.45
2019-02-17T14:31:31.651Z,43.50
2019-02-17T14:33:31.669Z,43.29
2019-02-17T14:35:31.883Z,43.59
2019-02-17T14:37:31.690Z,42.93
2019-02-17T14:39:31.879Z,42.62
2019-02-17T14:41:31.862Z,42.94
2019-02-17T14:43:31.848Z,43.04
2019-02-17T14:45:31.940Z,43.04
2019-02-17T14:47:31.959Z,42.80
2019-02-17T14:49:31.874Z,41.79
2019-02-17T14:51:31.993Z,42.33
2019-02-17T14:53:31.940Z,41.98
2019-02-17T14:55:31.923Z,41.50
2019-02-17T14:57:31.800Z,42.17
2019-02-17T14:59:31.800Z,42.46
2019-02-17T15:01:31.792Z,43.17
2019-02-17T15:03:31.798Z,43.60
2019-02-17T15:05:31.773Z,43.43
2019-02-17T15:07:31.762Z,43.72
2019-02-17T15:09:31.667Z,43.87
2019-02-17T15:11:31.638Z,43.63
2019-02-17T15:13:31.902Z,43.96
2019-02-17T15:15:31.885Z,43.94
2019-02-17T15:17:32.131Z,43.91
2019-02-17T15:19:31.614Z,43.61
2019-02-17T15:21:31.950Z,43.61
2019-02-17T15:23:32.159Z,43.68
2019-02-17T15:25:31.971Z,43.57
2019-02-17T15:27:31.984Z,43.55
2019-02-17T15:29:31.932Z,43.82
2019-02-17T15:31:31.800Z,43.90
2019-02-17T15:33:32.216Z,44.05
2019-02-17T15:35:32.024Z,43.99
2019-02-17T15:37:31.987Z,43.85
2019-02-17T15:39:31.964Z,44.21
2019-02-17T15:41:32.057Z,44.48
2019-02-17T15:43:32.083Z,44.13
2019-02-17T15:45:32.196Z,44.13
2019-02-17T15:47:31.897Z,44.48
2019-02-17T15:49:31.908Z,44.80
2019-02-17T15:51:31.919Z,45.40
2019-02-17T15:53:31.937Z,45.77
2019-02-17T15:55:31.852Z,45.98
2019-02-17T15:57:31.671Z,46.17
2019-02-17T15:59:31.927Z,46.52
2019-02-17T16:01:32.186Z,46.77
2019-02-17T16:03:31.989Z,46.85
2019-02-17T16:05:31.916Z,47.17
2019-02-17T16:07:32.930Z,47.03
2019-02-17T16:09:31.821Z,47.19
2019-02-17T16:11:32.648Z,47.64
2019-02-17T16:13:32.251Z,47.63
2019-02-17T16:15:32.471Z,48.06
2019-02-17T16:17:32.277Z,48.38
2019-02-17T16:19:31.842Z,48.23
2019-02-17T16:21:34.657Z,48.48
2019-02-17T16:23:32.107Z,48.66
2019-02-17T16:25:31.885Z,48.56
2019-02-17T16:27:32.127Z,48.90
2019-02-17T16:29:31.936Z,48.92
2019-02-17T16:31:32.257Z,49.04
2019-02-17T16:33:32.168Z,49.34
2019-02-17T16:35:31.948Z,49.51
2019-02-17T16:37:32.151Z,49.99
2019-02-17T16:39:31.972Z,50.17
2019-02-17T16:41:32.006Z,50.50
2019-02-17T16:43:32.131Z,51.26
2019-02-17T16:45:31.995Z,51.60
2019-02-17T16:47:32.151Z,52.11
2019-02-17T16:49:35.056Z,52.63
2019-02-17T16:51:32.060Z,53.07
2019-02-17T16:53:32.034Z,53.48
2019-02-17T16:55:32.208Z,53.77
2019-02-17T16:57:32.307Z,54.28
2019-02-17T16:59:32.326Z,54.82
2019-02-17T17:01:32.824Z,55.51
2019-02-17T17:03:32.336Z,55.66
2019-02-17T17:05:32.142Z,56.46
2019-02-17T17:07:33.752Z,56.94
2019-02-17T17:09:35.040Z,57.31
2019-02-17T17:11:32.384Z,57.82
2019-02-17T17:13:34.790Z,58.56
2019-02-17T17:15:31.997Z,58.62
2019-02-17T17:17:32.145Z,58.97
2019-02-17T17:19:32.009Z,59.40
2019-02-17T17:21:32.234Z,60.13
2019-02-17T17:23:32.159Z,60.61
2019-02-17T17:25:32.063Z,60.45
2019-02-17T17:27:32.170Z,60.91
2019-02-17T17:29:32.201Z,61.24
2019-02-17T17:31:32.295Z,61.70
2019-02-17T17:33:32.103Z,61.79
2019-02-17T17:35:32.316Z,62.56
2019-02-17T17:37:32.330Z,62.64
2019-02-17T17:39:32.249Z,62.98
2019-02-17T17:41:32.770Z,63.29
2019-02-17T17:43:32.267Z,64.12
2019-02-17T17:45:32.179Z,64.76
2019-02-17T17:47:32.188Z,64.70
2019-02-17T17:49:32.195Z,65.18
2019-02-17T17:51:31.959Z,65.34
2019-02-17T17:53:32.156Z,66.33
2019-02-17T17:55:31.965Z,66.62
2019-02-17T17:57:32.187Z,67.10
2019-02-17T17:59:32.048Z,67.09
2019-02-17T18:01:32.060Z,67.54
2019-02-17T18:03:32.073Z,68.01
2019-02-17T18:05:32.297Z,67.98
2019-02-17T18:07:32.063Z,68.86
2019-02-17T18:09:32.321Z,68.85
2019-02-17T18:11:32.874Z,69.43
2019-02-17T18:13:32.115Z,69.62
2019-02-17T18:15:32.142Z,69.67
2019-02-17T18:17:32.360Z,70.43
2019-02-17T18:19:32.374Z,70.80
2019-02-17T18:21:32.154Z,71.16
2019-02-17T18:23:32.395Z,71.64
2019-02-17T18:25:32.198Z,71.48
2019-02-17T18:27:32.414Z,71.08
2019-02-17T18:29:32.436Z,70.93
2019-02-17T18:31:32.643Z,71.18
2019-02-17T18:33:32.188Z,71.29
2019-02-17T18:35:32.197Z,71.49
2019-02-17T18:37:32.268Z,71.45
2019-02-17T18:39:33.402Z,71.49
2019-02-17T18:41:32.289Z,71.76
2019-02-17T18:43:32.313Z,72.58
2019-02-17T18:45:32.317Z,73.28
2019-02-17T18:47:32.283Z,72.86
2019-02-17T18:49:32.084Z,72.86
2019-02-17T18:51:32.152Z,72.98
2019-02-17T18:53:32.457Z,74.46
2019-02-17T18:55:32.250Z,74.04
2019-02-17T18:57:32.391Z,74.54
2019-02-17T18:59:32.401Z,74.00
2019-02-17T19:01:32.303Z,74.64
2019-02-17T19:03:32.327Z,74.40
2019-02-17T19:05:32.560Z,74.31
2019-02-17T19:07:32.376Z,73.91
2019-02-17T19:09:32.227Z,74.43
2019-02-17T19:11:32.369Z,74.14
2019-02-17T19:13:32.247Z,74.28
2019-02-17T19:15:32.288Z,74.10
2019-02-17T19:17:32.502Z,74.57
2019-02-17T19:19:32.516Z,74.76
2019-02-17T19:21:32.327Z,75.49
2019-02-17T19:23:32.277Z,75.39
2019-02-17T19:25:32.348Z,75.75
2019-02-17T19:27:32.355Z,75.48
2019-02-17T19:29:32.577Z,75.74
2019-02-17T19:31:32.377Z,74.99
2019-02-17T19:33:32.195Z,74.95
2019-02-17T19:35:40.999Z,75.05
2019-02-17T19:37:32.363Z,75.30
2019-02-17T19:39:32.432Z,75.32
2019-02-17T19:41:32.441Z,75.75
2019-02-17T19:43:32.459Z,75.69
2019-02-17T19:45:32.192Z,75.78
2019-02-17T19:47:32.885Z,76.73
2019-02-17T19:49:33.742Z,76.61
2019-02-17T19:51:32.293Z,76.65
2019-02-17T19:53:32.520Z,77.04
2019-02-17T19:55:32.288Z,77.57
2019-02-17T19:57:32.441Z,77.55
2019-02-17T19:59:32.341Z,78.15
2019-02-17T20:01:34.226Z,78.51
2019-02-17T20:03:32.379Z,78.36
2019-02-17T20:05:32.369Z,78.45
2019-02-17T20:07:32.389Z,78.16
2019-02-17T20:09:32.164Z,78.28
2019-02-17T20:11:31.785Z,78.21
2019-02-17T20:13:32.234Z,78.39
2019-02-17T20:15:31.821Z,78.39
2019-02-17T20:17:32.253Z,78.45
2019-02-17T20:19:32.050Z,78.61
2019-02-17T20:21:31.810Z,78.90
2019-02-17T20:23:32.118Z,79.12
2019-02-17T20:25:32.045Z,78.60
2019-02-17T20:27:32.091Z,78.96
2019-02-17T20:29:32.104Z,78.92
2019-02-17T20:31:32.116Z,78.91
2019-02-17T20:33:32.744Z,79.16
2019-02-17T20:35:31.919Z,79.47
2019-02-17T20:37:32.361Z,79.70
2019-02-17T20:39:32.577Z,79.71
2019-02-17T20:41:32.379Z,80.16
2019-02-17T20:43:32.344Z,80.12
2019-02-17T20:45:32.109Z,80.42
2019-02-17T20:47:32.203Z,80.99
2019-02-17T20:49:32.036Z,80.90
2019-02-17T20:51:31.972Z,80.86
2019-02-17T20:53:32.040Z,81.12
2019-02-17T20:55:32.050Z,81.74
2019-02-17T20:57:32.009Z,81.42
2019-02-17T20:59:32.074Z,81.29
2019-02-17T21:01:32.086Z,81.58
2019-02-17T21:03:32.116Z,81.40
2019-02-17T21:05:32.529Z,81.49
2019-02-17T21:07:32.066Z,81.88
2019-02-17T21:09:31.876Z,81.87
2019-02-17T21:11:31.939Z,82.28
2019-02-17T21:13:32.160Z,82.34
2019-02-17T21:15:32.785Z,82.16
2019-02-17T21:17:32.387Z,82.04
2019-02-17T21:19:31.982Z,82.51
2019-02-17T21:21:32.201Z,82.45
2019-02-17T21:23:32.172Z,82.07
2019-02-17T21:25:32.231Z,82.18
2019-02-17T21:27:31.985Z,82.10
2019-02-17T21:29:32.044Z,82.37
2019-02-17T21:31:32.057Z,82.54
2019-02-17T21:33:32.267Z,82.17
2019-02-17T21:35:32.085Z,82.12
2019-02-17T21:37:32.094Z,82.04
2019-02-17T21:39:32.030Z,81.90
2019-02-17T21:41:32.118Z,82.43
2019-02-17T21:43:31.922Z,82.10
2019-02-17T21:45:32.075Z,82.23
2019-02-17T21:47:32.137Z,82.07
2019-02-17T21:49:32.159Z,82.29
2019-02-17T21:51:31.910Z,82.39
2019-02-17T21:53:32.169Z,82.44
2019-02-17T21:55:32.194Z,82.73
2019-02-17T21:57:32.206Z,82.87
2019-02-17T21:59:32.425Z,82.94
2019-02-17T22:01:32.022Z,82.81
2019-02-17T22:03:32.213Z,82.99
2019-02-17T22:05:32.460Z,83.41
2019-02-17T22:07:31.805Z,83.40
2019-02-17T22:09:31.782Z,83.35
2019-02-17T22:11:31.878Z,83.51
2019-02-17T22:13:32.030Z,83.52
2019-02-17T22:15:31.907Z,83.48
2019-02-17T22:17:32.089Z,83.91
2019-02-17T22:19:32.139Z,83.73
2019-02-17T22:21:32.096Z,84.07
2019-02-17T22:23:32.127Z,84.24
2019-02-17T22:25:31.962Z,84.11
2019-02-17T22:27:31.969Z,84.47
2019-02-17T22:29:32.182Z,84.85
2019-02-17T22:31:32.135Z,84.83
2019-02-17T22:33:32.215Z,84.86
2019-02-17T22:35:32.428Z,85.02
2019-02-17T22:37:32.174Z,85.14
2019-02-17T22:39:32.058Z,85.12
2019-02-17T22:41:32.258Z,85.47
2019-02-17T22:43:32.049Z,85.59
2019-02-17T22:45:32.078Z,85.28
2019-02-17T22:47:32.290Z,85.93
2019-02-17T22:49:31.898Z,85.51
2019-02-17T22:51:32.727Z,86.09
2019-02-17T22:53:32.321Z,85.87
2019-02-17T22:55:32.340Z,86.14
2019-02-17T22:57:32.081Z,86.23
2019-02-17T22:59:31.940Z,86.07
2019-02-17T23:01:32.135Z,86.49
2019-02-17T23:03:32.551Z,86.26
2019-02-17T23:05:32.398Z,86.62
2019-02-17T23:07:32.203Z,86.79
2019-02-17T23:09:32.208Z,87.09
2019-02-17T23:11:32.222Z,87.42
2019-02-17T23:13:32.239Z,87.40
2019-02-17T23:15:32.203Z,87.28
2019-02-17T23:17:32.264Z,87.21
2019-02-17T23:19:32.207Z,87.32
2019-02-17T23:21:32.491Z,87.56
2019-02-17T23:23:32.500Z,87.28
2019-02-17T23:25:32.712Z,87.67
2019-02-17T23:27:32.323Z,87.77
2019-02-17T23:29:32.088Z,87.67
2019-02-17T23:31:32.140Z,87.86
2019-02-17T23:33:32.153Z,88.24
2019-02-17T23:35:32.570Z,88.59
2019-02-17T23:37:31.968Z,88.70
2019-02-17T23:39:32.443Z,88.64
2019-02-17T23:41:32.396Z,89.03
2019-02-17T23:43:32.006Z,88.57
2019-02-17T23:45:32.221Z,89.18
2019-02-17T23:47:32.023Z,89.49
2019-02-17T23:49:32.443Z,89.60
2019-02-17T23:51:32.459Z,89.38
2019-02-17T23:53:32.223Z,89.17
2019-02-17T23:55:32.230Z,89.43
2019-02-17T23:57:32.270Z,89.42
2019-02-17T23:59:32.370Z,89.68
